Buckie, United Kingdom
Current Conditions -  °F | °C
As of 6:50 PM on Sunday 23 Nov 2014 (Local Time) from EGQS Reporting Station
Clear Clear  
Wind Chill: 33°   Ceiling: Unl
Heat Index: 41°   Visibility: 6mi
Dew Point: 36°   Wind: 15mph
Humidity: 81%   Direction: 240°WSW
Pressure: 29.88"   Gusts: NA
Location:  57.68°N, 2.96°W
Report Text: EGQS 231850Z 24013KT CAVOK 05/02 Q1012 BLU
Loading
Personal Weather Stations






























Interactive Weather Map New forecast layout! Learn more

10-Day Weather Forecast

Advertisements
Track Severe Weather on mobile